createdAt,value
2017-09-22T00:02:20.898Z,81.20
2017-09-22T00:04:47.844Z,81.40
2017-09-22T00:07:14.737Z,81.80
2017-09-22T00:09:41.622Z,81.70
2017-09-22T00:12:08.548Z,82.10
2017-09-22T00:14:35.521Z,82.10
2017-09-22T00:17:02.811Z,82.10
2017-09-22T00:19:29.826Z,82.10
2017-09-22T00:21:56.769Z,82.30
2017-09-22T00:24:23.663Z,82.20
2017-09-22T00:26:50.573Z,82.30
2017-09-22T00:29:17.930Z,82.60
2017-09-22T00:31:45.226Z,82.70
2017-09-22T00:34:12.154Z,82.70
2017-09-22T00:36:39.045Z,82.90
2017-09-22T00:39:05.950Z,82.40
2017-09-22T00:41:32.876Z,82.80
2017-09-22T00:44:00.162Z,83.10
2017-09-22T00:46:27.046Z,83.10
2017-09-22T00:48:53.965Z,83.00
2017-09-22T00:51:20.861Z,83.00
2017-09-22T00:53:48.146Z,83.00
2017-09-22T00:56:15.065Z,83.00
2017-09-22T00:58:42.398Z,83.10
2017-09-22T01:01:09.281Z,83.10
2017-09-22T01:03:36.230Z,83.20
2017-09-22T01:06:03.182Z,83.10
2017-09-22T01:08:30.069Z,82.90
2017-09-22T01:10:57.400Z,82.70
2017-09-22T01:13:24.349Z,82.70
2017-09-22T01:15:51.240Z,82.70
2017-09-22T01:18:18.238Z,83.00
2017-09-22T01:20:45.117Z,83.00
2017-09-22T01:23:12.029Z,82.50
2017-09-22T01:25:38.990Z,82.80
2017-09-22T01:28:06.265Z,83.00
2017-09-22T01:30:33.177Z,83.00
2017-09-22T01:33:00.136Z,83.20
2017-09-22T01:35:27.433Z,83.10
2017-09-22T01:37:54.319Z,83.10
2017-09-22T01:40:21.266Z,82.80
2017-09-22T01:42:48.218Z,83.20
2017-09-22T01:45:15.165Z,83.20
2017-09-22T01:47:42.168Z,83.20
2017-09-22T01:50:09.159Z,83.00
2017-09-22T01:52:36.049Z,83.10
2017-09-22T01:55:02.978Z,83.50
2017-09-22T01:57:30.253Z,83.60
2017-09-22T01:59:57.149Z,83.60
2017-09-22T02:02:24.101Z,83.50
2017-09-22T02:04:50.994Z,83.80
2017-09-22T02:07:17.899Z,83.80
2017-09-22T02:09:45.255Z,82.80
2017-09-22T02:12:12.539Z,82.90
2017-09-22T02:14:39.425Z,82.90
2017-09-22T02:17:06.349Z,83.20
2017-09-22T02:19:33.234Z,83.10
2017-09-22T02:22:00.127Z,83.00
2017-09-22T02:24:27.044Z,83.20
2017-09-22T02:26:54.378Z,82.90
2017-09-22T02:29:21.280Z,82.90
2017-09-22T02:31:48.266Z,82.70
2017-09-22T02:34:15.222Z,82.70
2017-09-22T02:36:42.110Z,83.10
2017-09-22T02:39:09.109Z,82.90
2017-09-22T02:41:36.061Z,83.00
2017-09-22T02:44:03.005Z,83.10
2017-09-22T02:46:29.922Z,82.90
2017-09-22T02:48:56.806Z,82.90
2017-09-22T02:51:24.091Z,82.50
2017-09-22T02:53:51.104Z,82.50
2017-09-22T02:56:18.049Z,82.90
2017-09-22T02:58:44.990Z,82.80
2017-09-22T03:01:11.933Z,82.60
2017-09-22T03:03:38.825Z,82.80
2017-09-22T03:06:05.723Z,83.20
2017-09-22T03:08:32.685Z,83.40
2017-09-22T03:10:59.961Z,83.40
2017-09-22T03:13:26.844Z,83.40
2017-09-22T03:15:53.769Z,83.40
2017-09-22T03:18:20.662Z,83.20
2017-09-22T03:20:47.634Z,83.20
2017-09-22T03:23:14.969Z,83.40
2017-09-22T03:25:41.857Z,83.40
2017-09-22T03:28:08.759Z,83.40
2017-09-22T03:30:35.749Z,83.30
2017-09-22T03:33:02.650Z,83.10
2017-09-22T03:35:29.537Z,83.20
2017-09-22T03:37:56.545Z,83.20
2017-09-22T03:40:23.494Z,83.00
2017-09-22T03:42:50.446Z,83.00
2017-09-22T03:45:17.758Z,82.70
2017-09-22T03:47:44.733Z,82.80
2017-09-22T03:50:11.696Z,82.30
2017-09-22T03:52:39.000Z,83.10
2017-09-22T03:55:05.981Z,83.20
2017-09-22T03:57:32.876Z,83.30
2017-09-22T03:59:59.809Z,83.20
2017-09-22T04:02:26.688Z,83.20
2017-09-22T04:04:53.578Z,83.50
2017-09-22T04:07:20.901Z,83.20
2017-09-22T04:09:47.786Z,83.20
2017-09-22T04:12:15.131Z,83.50
2017-09-22T04:14:42.074Z,83.50
2017-09-22T04:17:08.967Z,83.40
2017-09-22T04:19:35.853Z,83.40
2017-09-22T04:22:02.817Z,83.50
2017-09-22T04:24:29.754Z,83.60
2017-09-22T04:26:56.643Z,83.60
2017-09-22T04:29:23.563Z,83.20
2017-09-22T04:31:50.838Z,83.40
2017-09-22T04:34:17.746Z,83.40
2017-09-22T04:36:45.100Z,83.60
2017-09-22T04:39:11.981Z,83.60
2017-09-22T04:41:38.885Z,83.60
2017-09-22T04:44:05.837Z,83.70
2017-09-22T04:46:32.781Z,83.80
2017-09-22T04:48:59.729Z,83.60
2017-09-22T04:51:26.683Z,83.60
2017-09-22T04:53:53.632Z,83.90
2017-09-22T04:56:20.574Z,84.00
2017-09-22T04:58:47.486Z,84.00
2017-09-22T05:01:14.469Z,83.90
2017-09-22T05:03:41.374Z,83.90
2017-09-22T05:06:08.323Z,84.10
2017-09-22T05:08:35.269Z,84.20
2017-09-22T05:11:02.158Z,84.10
2017-09-22T05:13:29.093Z,83.90
2017-09-22T05:15:56.009Z,84.20
2017-09-22T05:18:22.906Z,84.20
2017-09-22T05:20:49.913Z,84.20
2017-09-22T05:23:17.265Z,84.20
2017-09-22T05:25:44.267Z,84.20
2017-09-22T05:28:11.207Z,84.00
2017-09-22T05:30:38.136Z,84.40
2017-09-22T05:33:05.491Z,84.30
2017-09-22T05:35:32.417Z,84.30
2017-09-22T05:37:59.701Z,84.50
2017-09-22T05:40:26.591Z,84.50
2017-09-22T05:42:53.506Z,84.70
2017-09-22T05:45:20.505Z,85.50
2017-09-22T05:47:47.797Z,87.40
2017-09-22T05:50:14.798Z,87.40
2017-09-22T05:52:41.685Z,87.90
2017-09-22T05:55:08.590Z,87.90
2017-09-22T05:57:35.529Z,87.30
2017-09-22T06:00:02.421Z,87.00
2017-09-22T06:02:29.322Z,86.20
2017-09-22T06:04:56.305Z,85.80
2017-09-22T06:07:23.193Z,85.90
2017-09-22T06:09:50.179Z,85.40
2017-09-22T06:12:17.526Z,85.10
2017-09-22T06:14:44.870Z,85.00
2017-09-22T06:17:11.769Z,85.00
2017-09-22T06:19:38.782Z,84.90
2017-09-22T06:22:06.126Z,84.90
2017-09-22T06:24:33.074Z,84.90
2017-09-22T06:27:00.417Z,84.50
2017-09-22T06:29:27.318Z,84.50
2017-09-22T06:31:54.225Z,84.20
2017-09-22T06:34:21.579Z,84.30
2017-09-22T06:36:48.924Z,83.90
2017-09-22T06:39:15.815Z,83.90
2017-09-22T06:41:42.775Z,83.90
2017-09-22T06:44:09.659Z,83.70
2017-09-22T06:46:36.579Z,83.60
2017-09-22T06:49:03.553Z,83.40
2017-09-22T06:51:30.513Z,83.30
2017-09-22T06:53:57.866Z,83.00
2017-09-22T06:56:24.813Z,83.00
2017-09-22T06:58:51.764Z,82.30
2017-09-22T07:01:19.050Z,81.90
2017-09-22T07:03:45.974Z,81.90
2017-09-22T07:06:13.305Z,81.70
2017-09-22T07:08:40.253Z,81.70
2017-09-22T07:11:07.202Z,81.70
2017-09-22T07:13:34.101Z,81.80
2017-09-22T07:16:01.002Z,81.90
2017-09-22T07:18:28.369Z,81.80
2017-09-22T07:20:55.651Z,81.70
2017-09-22T07:23:22.533Z,81.70
2017-09-22T07:25:49.493Z,81.60
2017-09-22T07:28:16.452Z,81.70
2017-09-22T07:30:43.797Z,80.90
2017-09-22T07:33:10.722Z,81.00
2017-09-22T07:35:37.684Z,81.00
2017-09-22T07:38:04.641Z,80.60
2017-09-22T07:40:31.585Z,80.60
2017-09-22T07:42:58.558Z,80.50
2017-09-22T07:45:25.930Z,80.00
2017-09-22T07:47:52.933Z,80.00
2017-09-22T07:50:19.826Z,79.60
2017-09-22T07:52:46.733Z,79.20
2017-09-22T07:55:13.667Z,79.10
2017-09-22T07:57:40.612Z,78.50
2017-09-22T08:00:07.567Z,78.20
2017-09-22T08:02:34.505Z,78.10
2017-09-22T08:05:01.453Z,77.60
2017-09-22T08:07:28.397Z,77.60
2017-09-22T08:09:55.350Z,77.80
2017-09-22T08:12:22.234Z,77.50
2017-09-22T08:14:49.133Z,77.30
2017-09-22T08:17:16.086Z,77.00
2017-09-22T08:19:43.387Z,76.60
2017-09-22T08:22:10.286Z,76.10
2017-09-22T08:24:37.230Z,76.10
2017-09-22T08:27:04.118Z,75.80
2017-09-22T08:29:31.006Z,76.10
2017-09-22T08:31:57.971Z,76.10
2017-09-22T08:34:24.957Z,76.30
2017-09-22T08:36:51.841Z,75.60
2017-09-22T08:39:18.812Z,74.90
2017-09-22T08:41:45.697Z,74.60
2017-09-22T08:44:12.590Z,74.60
2017-09-22T08:46:39.541Z,74.40
2017-09-22T08:49:06.431Z,74.00
2017-09-22T08:51:33.338Z,73.60
2017-09-22T08:54:00.263Z,73.40
2017-09-22T08:56:27.145Z,73.40
2017-09-22T08:58:54.477Z,72.80
2017-09-22T09:01:21.429Z,72.80
2017-09-22T09:03:48.377Z,72.70
2017-09-22T09:06:15.274Z,72.40
2017-09-22T09:08:42.282Z,72.30
2017-09-22T09:11:09.568Z,71.60
2017-09-22T09:13:36.477Z,71.60
2017-09-22T09:16:03.802Z,71.90
2017-09-22T09:18:30.697Z,71.90
2017-09-22T09:20:57.617Z,72.80
2017-09-22T09:23:24.549Z,73.30
2017-09-22T09:25:51.437Z,72.70
2017-09-22T09:28:18.356Z,71.60
2017-09-22T09:30:45.713Z,71.40
2017-09-22T09:33:13.109Z,71.40
2017-09-22T09:35:40.013Z,71.40
2017-09-22T09:38:06.957Z,71.10
2017-09-22T09:40:33.861Z,70.20
2017-09-22T09:43:00.737Z,69.20
2017-09-22T09:45:27.660Z,69.10
2017-09-22T09:47:54.945Z,69.70
2017-09-22T09:50:21.830Z,69.70
2017-09-22T09:52:48.785Z,69.40
2017-09-22T09:55:15.778Z,69.80
2017-09-22T09:57:42.661Z,69.10
2017-09-22T10:00:09.592Z,68.80
2017-09-22T10:02:36.486Z,68.60
2017-09-22T10:05:04.617Z,68.00
2017-09-22T10:07:31.598Z,68.00
2017-09-22T10:09:58.486Z,67.40
2017-09-22T10:12:25.377Z,66.40
2017-09-22T10:14:52.642Z,66.30
2017-09-22T10:17:19.637Z,66.40
2017-09-22T10:19:46.526Z,66.70
2017-09-22T10:22:13.482Z,66.60
2017-09-22T10:24:40.373Z,66.70
2017-09-22T10:27:07.264Z,66.90
2017-09-22T10:29:34.185Z,66.40
2017-09-22T10:32:01.166Z,66.20
2017-09-22T10:34:28.054Z,67.00
2017-09-22T10:36:55.013Z,67.00
2017-09-22T10:39:21.919Z,66.70
2017-09-22T10:41:49.198Z,66.10
2017-09-22T10:44:16.306Z,66.10
2017-09-22T10:46:43.197Z,65.50
2017-09-22T10:49:10.089Z,65.80
2017-09-22T10:51:37.033Z,65.70
2017-09-22T10:54:03.922Z,65.30
2017-09-22T10:56:30.810Z,66.10
2017-09-22T10:58:57.773Z,66.50
2017-09-22T11:01:24.658Z,66.20
2017-09-22T11:03:51.566Z,65.70
2017-09-22T11:06:18.517Z,65.40
2017-09-22T11:08:45.801Z,64.50
2017-09-22T11:11:12.697Z,64.50
2017-09-22T11:13:39.641Z,64.90
2017-09-22T11:16:06.606Z,64.50
2017-09-22T11:18:33.899Z,64.40
2017-09-22T11:21:00.826Z,64.40
2017-09-22T11:23:28.161Z,64.40
2017-09-22T11:25:55.045Z,64.40
2017-09-22T11:28:22.097Z,63.90
2017-09-22T11:30:48.486Z,63.60
2017-09-22T11:33:15.633Z,63.50
2017-09-22T11:35:42.587Z,63.30
2017-09-22T11:38:09.483Z,64.00
2017-09-22T11:40:36.370Z,63.60
2017-09-22T11:43:03.325Z,64.10
2017-09-22T11:45:30.280Z,63.60
2017-09-22T11:47:57.631Z,64.00
2017-09-22T11:50:24.983Z,64.50
2017-09-22T11:52:51.938Z,64.50
2017-09-22T11:55:19.286Z,64.10
2017-09-22T11:57:46.229Z,64.20
2017-09-22T12:00:13.160Z,63.80
2017-09-22T12:02:40.048Z,63.60
2017-09-22T12:05:07.382Z,64.20
2017-09-22T12:07:34.320Z,64.10
2017-09-22T12:10:01.313Z,64.00
2017-09-22T12:12:28.228Z,64.00
2017-09-22T12:14:55.577Z,63.50
2017-09-22T12:17:22.473Z,63.50
2017-09-22T12:19:49.362Z,63.10
2017-09-22T12:22:16.290Z,63.00
2017-09-22T12:24:43.175Z,63.50
2017-09-22T12:27:10.511Z,63.10
2017-09-22T12:29:37.469Z,63.10
2017-09-22T12:32:04.851Z,63.10
2017-09-22T12:34:31.741Z,63.10
2017-09-22T12:36:58.709Z,61.90
2017-09-22T12:39:25.609Z,62.20
2017-09-22T12:41:52.493Z,61.40
2017-09-22T12:44:19.433Z,61.70
2017-09-22T12:46:46.394Z,61.60
2017-09-22T12:49:13.753Z,61.00
2017-09-22T12:51:41.098Z,60.50
2017-09-22T12:54:08.051Z,60.50
2017-09-22T12:56:35.040Z,60.20
2017-09-22T12:59:01.985Z,61.30
2017-09-22T13:01:28.879Z,61.10
2017-09-22T13:03:55.829Z,61.50
2017-09-22T13:06:22.758Z,61.50
2017-09-22T13:08:49.726Z,61.10
2017-09-22T13:11:16.618Z,61.20
2017-09-22T13:13:43.542Z,60.70
2017-09-22T13:16:10.821Z,59.50
2017-09-22T13:18:37.711Z,59.50
2017-09-22T13:21:04.666Z,60.00
2017-09-22T13:23:31.559Z,60.70
2017-09-22T13:25:58.454Z,60.70
2017-09-22T13:28:25.377Z,61.20
2017-09-22T13:30:52.350Z,61.50
2017-09-22T13:33:19.745Z,62.00
2017-09-22T13:35:46.665Z,62.40
2017-09-22T13:38:14.006Z,62.30
2017-09-22T13:40:40.891Z,62.30
2017-09-22T13:43:07.903Z,62.90
2017-09-22T13:45:34.846Z,62.90
2017-09-22T13:48:01.834Z,62.70
2017-09-22T13:50:28.834Z,62.60
2017-09-22T13:52:55.734Z,62.60
2017-09-22T13:55:22.618Z,63.10
2017-09-22T13:57:49.579Z,62.70
2017-09-22T14:00:16.469Z,63.10
2017-09-22T14:02:43.361Z,63.50
2017-09-22T14:05:10.296Z,63.50
2017-09-22T14:07:37.260Z,63.80
2017-09-22T14:10:04.150Z,63.50
2017-09-22T14:12:31.082Z,63.60
2017-09-22T14:14:57.968Z,63.80
2017-09-22T14:17:24.870Z,64.40
2017-09-22T14:19:52.328Z,64.50
2017-09-22T14:22:19.652Z,64.40
2017-09-22T14:24:46.533Z,64.40
2017-09-22T14:27:13.551Z,64.40
2017-09-22T14:29:40.537Z,64.90
2017-09-22T14:32:07.442Z,64.00
2017-09-22T14:34:34.438Z,64.20
2017-09-22T14:37:01.330Z,64.20
2017-09-22T14:39:28.277Z,63.70
2017-09-22T14:41:55.220Z,63.10
2017-09-22T14:44:22.169Z,63.20
2017-09-22T14:46:49.058Z,63.60
2017-09-22T14:49:15.990Z,63.30
2017-09-22T14:51:43.299Z,63.70
2017-09-22T14:54:10.271Z,63.70
2017-09-22T14:56:37.271Z,63.20
2017-09-22T14:59:04.212Z,62.50
2017-09-22T15:01:31.215Z,63.50
2017-09-22T15:03:58.581Z,64.10
2017-09-22T15:06:25.859Z,63.90
2017-09-22T15:08:52.762Z,63.90
2017-09-22T15:11:19.753Z,63.80
2017-09-22T15:13:46.645Z,64.40
2017-09-22T15:16:13.629Z,64.70
2017-09-22T15:18:40.638Z,64.90
2017-09-22T15:21:07.602Z,64.70
2017-09-22T15:23:34.542Z,65.00
2017-09-22T15:26:01.489Z,64.70
2017-09-22T15:28:28.375Z,64.70
2017-09-22T15:30:55.285Z,65.10
2017-09-22T15:33:22.214Z,65.10
2017-09-22T15:35:49.182Z,65.30
2017-09-22T15:38:16.117Z,65.60
2017-09-22T15:40:43.033Z,66.50
2017-09-22T15:43:09.933Z,66.80
2017-09-22T15:45:37.315Z,67.70
2017-09-22T15:48:04.244Z,67.70
2017-09-22T15:50:31.167Z,67.20
2017-09-22T15:52:58.106Z,67.20
2017-09-22T15:55:25.033Z,67.60
2017-09-22T15:57:51.925Z,68.30
2017-09-22T16:00:18.822Z,68.10
2017-09-22T16:02:45.743Z,68.60
2017-09-22T16:05:12.646Z,68.70
2017-09-22T16:07:39.931Z,68.50
2017-09-22T16:10:06.942Z,68.50
2017-09-22T16:12:33.890Z,69.10
2017-09-22T16:15:01.167Z,69.30
2017-09-22T16:17:28.176Z,69.30
2017-09-22T16:19:55.138Z,69.90
2017-09-22T16:22:22.082Z,69.70
2017-09-22T16:24:49.034Z,69.60
2017-09-22T16:27:16.335Z,69.70
2017-09-22T16:29:43.330Z,69.70
2017-09-22T16:32:10.254Z,69.70
2017-09-22T16:34:37.141Z,69.70
2017-09-22T16:37:04.430Z,70.30
2017-09-22T16:39:31.353Z,70.30
2017-09-22T16:41:58.257Z,70.40
2017-09-22T16:44:25.213Z,70.20
2017-09-22T16:46:55.476Z,70.40
2017-09-22T16:49:22.395Z,70.70
2017-09-22T16:51:49.738Z,70.90
2017-09-22T16:54:16.692Z,70.90
2017-09-22T16:56:44.041Z,71.20
2017-09-22T16:59:10.930Z,71.20
2017-09-22T17:01:37.934Z,70.80
2017-09-22T17:04:04.822Z,70.00
2017-09-22T17:06:31.713Z,70.00
2017-09-22T17:08:58.650Z,70.20
2017-09-22T17:11:25.660Z,70.10
2017-09-22T17:13:52.551Z,70.40
2017-09-22T17:16:19.474Z,70.80
2017-09-22T17:18:46.366Z,69.80
2017-09-22T17:21:13.715Z,70.70
2017-09-22T17:23:40.661Z,70.70
2017-09-22T17:26:07.545Z,71.90
2017-09-22T17:28:34.444Z,71.80
2017-09-22T17:31:01.369Z,72.10
2017-09-22T17:33:28.949Z,73.00
2017-09-22T17:35:55.902Z,73.60
2017-09-22T17:38:22.845Z,73.70
2017-09-22T17:40:49.799Z,74.20
2017-09-22T17:43:17.097Z,74.30
2017-09-22T17:45:44.031Z,74.30
2017-09-22T17:48:10.926Z,74.40
2017-09-22T17:50:37.821Z,75.00
2017-09-22T17:53:04.830Z,76.00
2017-09-22T17:55:31.722Z,76.60
2017-09-22T17:57:58.611Z,76.80
2017-09-22T18:00:25.543Z,77.10
2017-09-22T18:02:52.555Z,77.10
2017-09-22T18:05:19.442Z,77.10
2017-09-22T18:07:46.758Z,77.30
2017-09-22T18:10:14.019Z,77.60
2017-09-22T18:12:40.948Z,77.70
2017-09-22T18:15:07.894Z,77.80
2017-09-22T18:17:34.795Z,78.00
2017-09-22T18:20:01.681Z,78.10
2017-09-22T18:22:28.604Z,78.20
2017-09-22T18:24:55.490Z,78.10
2017-09-22T18:27:22.411Z,78.30
2017-09-22T18:29:49.699Z,78.50
2017-09-22T18:32:16.700Z,78.50
2017-09-22T18:34:44.054Z,78.80
2017-09-22T18:37:11.355Z,79.00
2017-09-22T18:39:38.244Z,79.00
2017-09-22T18:42:05.176Z,79.00
2017-09-22T18:44:32.094Z,78.80
2017-09-22T18:46:59.085Z,78.80
2017-09-22T18:49:26.013Z,78.90
2017-09-22T18:51:52.902Z,78.90
2017-09-22T18:54:20.233Z,79.10
2017-09-22T18:56:47.178Z,79.00
2017-09-22T18:59:14.126Z,79.10
2017-09-22T19:01:41.022Z,79.10
2017-09-22T19:04:08.023Z,79.00
2017-09-22T19:06:35.315Z,79.40
2017-09-22T19:09:02.209Z,79.40
2017-09-22T19:11:29.165Z,79.50
2017-09-22T19:13:56.057Z,79.30
2017-09-22T19:16:22.971Z,78.90
2017-09-22T19:18:50.297Z,78.70
2017-09-22T19:21:17.267Z,78.70
2017-09-22T19:23:44.893Z,78.70
2017-09-22T19:26:11.875Z,78.70
2017-09-22T19:28:39.165Z,78.90
2017-09-22T19:31:06.045Z,78.90
2017-09-22T19:33:33.013Z,78.90
2017-09-22T19:35:59.893Z,79.20
2017-09-22T19:38:26.782Z,79.30
2017-09-22T19:40:53.798Z,79.50
2017-09-22T19:43:20.698Z,79.50
2017-09-22T19:45:47.590Z,79.60
2017-09-22T19:48:14.529Z,79.80
2017-09-22T19:50:41.438Z,79.80
2017-09-22T19:53:08.747Z,79.90
2017-09-22T19:55:35.669Z,79.90
2017-09-22T19:58:02.557Z,79.90
2017-09-22T20:00:29.533Z,79.90
2017-09-22T20:02:56.494Z,79.90
2017-09-22T20:05:23.832Z,80.20
2017-09-22T20:07:50.740Z,80.20
2017-09-22T20:10:17.671Z,80.40
2017-09-22T20:12:44.565Z,80.30
2017-09-22T20:15:11.515Z,80.20
2017-09-22T20:17:38.863Z,79.80
2017-09-22T20:20:05.766Z,79.80
2017-09-22T20:22:32.659Z,79.50
2017-09-22T20:24:59.609Z,79.60
2017-09-22T20:27:26.502Z,79.30
2017-09-22T20:29:53.401Z,79.40
2017-09-22T20:32:20.337Z,79.70
2017-09-22T20:34:47.232Z,79.30
2017-09-22T20:37:14.131Z,79.10
2017-09-22T20:39:41.177Z,78.40
2017-09-22T20:42:08.083Z,78.80
2017-09-22T20:44:35.074Z,79.20
2017-09-22T20:47:02.002Z,79.60
2017-09-22T20:49:28.965Z,80.10
2017-09-22T20:51:55.919Z,80.30
2017-09-22T20:54:22.846Z,80.40
2017-09-22T20:56:49.813Z,80.30
2017-09-22T20:59:16.702Z,80.50
2017-09-22T21:01:43.703Z,80.60
2017-09-22T21:04:10.652Z,80.00
2017-09-22T21:06:37.589Z,80.40
2017-09-22T21:09:04.575Z,80.80
2017-09-22T21:11:31.834Z,80.30
2017-09-22T21:13:58.745Z,80.30
2017-09-22T21:16:25.664Z,80.50
2017-09-22T21:18:52.632Z,80.80
2017-09-22T21:21:19.518Z,81.30
2017-09-22T21:23:46.464Z,80.70
2017-09-22T21:26:13.358Z,80.80
2017-09-22T21:28:40.249Z,81.90
2017-09-22T21:31:07.182Z,80.90
2017-09-22T21:33:34.624Z,81.50
2017-09-22T21:36:01.925Z,80.40
2017-09-22T21:38:28.850Z,80.40
2017-09-22T21:40:55.737Z,80.30
2017-09-22T21:43:22.710Z,80.20
2017-09-22T21:45:49.653Z,80.40
2017-09-22T21:48:16.601Z,80.80
2017-09-22T21:50:43.501Z,80.70
2017-09-22T21:53:10.422Z,80.80
2017-09-22T21:55:37.339Z,81.00
2017-09-22T21:58:04.233Z,80.70
2017-09-22T22:00:31.235Z,80.70
2017-09-22T22:02:58.183Z,80.70
2017-09-22T22:05:25.067Z,80.60
2017-09-22T22:07:52.015Z,81.00
2017-09-22T22:10:18.897Z,80.60
2017-09-22T22:12:45.786Z,81.10
2017-09-22T22:15:13.146Z,81.30
2017-09-22T22:17:40.030Z,81.30
2017-09-22T22:20:07.010Z,81.00
2017-09-22T22:22:33.968Z,81.10
2017-09-22T22:25:01.241Z,81.00
2017-09-22T22:27:28.138Z,81.00
2017-09-22T22:29:55.989Z,80.90
2017-09-22T22:32:22.969Z,81.20
2017-09-22T22:34:49.918Z,81.50
2017-09-22T22:37:16.873Z,81.30
2017-09-22T22:39:44.221Z,81.20
2017-09-22T22:42:11.154Z,81.20
2017-09-22T22:44:38.114Z,81.50
2017-09-22T22:47:05.002Z,81.80
2017-09-22T22:49:31.889Z,81.50
2017-09-22T22:51:58.849Z,81.40
2017-09-22T22:54:25.805Z,81.60
2017-09-22T22:56:53.165Z,81.70
2017-09-22T22:59:20.522Z,82.20
2017-09-22T23:01:47.805Z,82.30
2017-09-22T23:04:14.721Z,82.30
2017-09-22T23:06:42.037Z,81.50
2017-09-22T23:09:08.926Z,81.50
2017-09-22T23:11:36.269Z,81.90
2017-09-22T23:14:03.185Z,81.90
2017-09-22T23:16:30.525Z,81.90
2017-09-22T23:18:57.493Z,81.90
2017-09-22T23:21:24.813Z,81.60
2017-09-22T23:23:51.791Z,81.60
2017-09-22T23:26:18.680Z,81.60
2017-09-22T23:28:45.681Z,81.20
2017-09-22T23:31:12.638Z,81.20
2017-09-22T23:33:39.926Z,81.20
2017-09-22T23:36:06.877Z,81.20
2017-09-22T23:38:33.766Z,81.00
2017-09-22T23:41:00.731Z,81.00
2017-09-22T23:43:27.666Z,81.00
2017-09-22T23:45:54.554Z,80.90
2017-09-22T23:48:21.453Z,80.80
2017-09-22T23:50:48.394Z,80.90
2017-09-22T23:53:15.292Z,80.90
2017-09-22T23:55:42.198Z,81.00
2017-09-22T23:58:09.188Z,80.80
